New Church, VA (23415)

7:23 AM EST on November 24, 2014 (GMT -0500)
VADOT Rt_13_@_New_Church | Change Station
CLOSE
Current Station
Personal Weather Station
Location: Withams, VA
Elevation: 41 ft
Nearby Weather Stations

Elev 41 ft 37.98 °N, 75.53 °W | Updated 57 minutes ago

Fog
Fog
67 °F
Feels Like 67 °F
N
13
Wind Variable Wind from SW
Gusts 19.0 mph

Today
High -- | Low -- °F
--% Chance of Precip.
Yesterday
High -- | Low -- °F
Precip. -- in
6:52 AM 4:45 PM
Waxing Crescent, 5% visible
Pressure 29.77 in
Visibility 0.5 miles
Clouds
Dew Point 67 °F
Humidity 100%
Rainfall 0.86 in
Snow Depth Not available.
UV Not available.
Pollen .10 out of 12
Air Quality Not available.
Flu Activity Not available.
SPECI KWAL 241212Z AUTO 21016KT 1/2SM FG VV002 15/15 A2977 RMK AO2 T01500150

More Conditions Fewer Conditions

Pressure 29.77 in
Visibility 0.5 miles
Clouds
Dew Point 67 °F
Humidity 100%
Rainfall 0.86 in
Snow Depth Not available.
UV Not available.
Pollen .10 out of 12
Air Quality Not available.
Flu Activity Not available.
SPECI KWAL 241212Z AUTO 21016KT 1/2SM FG VV002 15/15 A2977 RMK AO2 T01500150

More Conditions Fewer Conditions

10-Day Weather Forecast

Almanac

Astronomy

Nov. 24, 2014 Rise Set
Actual Time
Civil Twilight
Nautical Twilight
Astronomical Twilight
Moon
Length of Visible Light
Length of Day
Tomorrow will be .
, % of the Moon is Illuminated

Today's Extremes

State Highs State Lows

Community

WunderPhotos

Upload Photos

1,773,319 photos uploaded!

WunderBlogs® & News

Nearby

Air Quality

  Air Quality AQ Index Pollutant
Not available.

Snow Depth

Station Depth Elevation

Earthquake Activity

City Distance Mag. Time & Date
Minimum magnitude displayed is 2.5.

Coastal Water Temperatures

Place Temperature

Nearby Weather Stations